createdAt,value
2022-12-05T00:02:27.440Z,40.97
2022-12-05T00:04:57.637Z,40.38
2022-12-05T00:07:29.274Z,38.97
2022-12-05T00:09:57.419Z,43.50
2022-12-05T00:12:25.498Z,40.80
2022-12-05T00:14:53.461Z,51.20
2022-12-05T00:17:21.349Z,47.15
2022-12-05T00:19:53.706Z,36.95
2022-12-05T00:22:26.986Z,35.60
2022-12-05T00:24:55.003Z,50.35
2022-12-05T00:27:22.980Z,39.78
2022-12-05T00:29:50.945Z,48.03
2022-12-05T00:32:18.895Z,38.97
2022-12-05T00:34:49.911Z,46.05
2022-12-05T00:37:17.888Z,40.03
2022-12-05T00:39:48.397Z,43.92
2022-12-05T00:42:16.389Z,47.42
2022-12-05T00:44:44.334Z,41.28
2022-12-05T00:47:12.189Z,36.95
2022-12-05T00:49:40.046Z,37.90
2022-12-05T00:52:08.059Z,36.13
2022-12-05T00:54:35.971Z,38.58
2022-12-05T00:57:05.379Z,38.92
2022-12-05T00:59:33.291Z,39.72
2022-12-05T01:02:01.292Z,38.58
2022-12-05T01:04:29.375Z,37.47
2022-12-05T01:06:58.782Z,43.03
2022-12-05T01:09:27.106Z,34.15
2022-12-05T01:11:55.091Z,38.33
2022-12-05T01:14:26.404Z,37.58
2022-12-05T01:16:57.463Z,40.75
2022-12-05T01:19:28.064Z,40.03
2022-12-05T01:21:57.207Z,39.15
2022-12-05T01:24:26.933Z,34.92
2022-12-05T01:26:55.188Z,39.97
2022-12-05T01:29:25.662Z,36.03
2022-12-05T01:31:54.003Z,41.33
2022-12-05T01:34:22.673Z,39.80
2022-12-05T01:36:50.598Z,40.45
2022-12-05T01:39:18.494Z,39.13
2022-12-05T01:41:49.558Z,42.33
2022-12-05T01:44:55.143Z,37.05
2022-12-05T01:47:26.112Z,41.83
2022-12-05T01:49:58.521Z,41.22
2022-12-05T01:52:29.823Z,44.20
2022-12-05T01:55:01.950Z,44.42
2022-12-05T01:57:30.029Z,39.58
2022-12-05T02:00:01.541Z,42.15
2022-12-05T02:02:33.384Z,31.85
2022-12-05T02:05:05.335Z,42.00
2022-12-05T02:07:34.729Z,45.92
2022-12-05T02:10:02.687Z,43.22
2022-12-05T02:12:30.622Z,44.72
2022-12-05T02:15:15.106Z,42.47
2022-12-05T02:17:56.207Z,42.58
2022-12-05T02:20:39.809Z,38.90
2022-12-05T02:23:36.563Z,43.65
2022-12-05T02:26:39.484Z,49.22
2022-12-05T02:29:52.755Z,51.20
2022-12-05T02:35:02.951Z,45.08
2022-12-05T02:37:37.730Z,40.85
2022-12-05T02:40:13.578Z,43.00
2022-12-05T02:42:47.389Z,44.83
2022-12-05T02:45:19.282Z,38.03
2022-12-05T02:47:50.950Z,45.35
2022-12-05T02:50:22.895Z,43.63
2022-12-05T02:52:53.312Z,27.83
2022-12-05T02:55:23.091Z,43.53
2022-12-05T02:57:55.390Z,37.35
2022-12-05T03:00:23.761Z,41.70
2022-12-05T03:02:57.125Z,44.67
2022-12-05T03:05:37.640Z,37.55
2022-12-05T03:08:09.290Z,45.33
2022-12-05T03:10:41.118Z,47.15
2022-12-05T03:13:15.797Z,40.90
2022-12-05T03:15:48.497Z,46.53
2022-12-05T03:18:23.706Z,37.38
2022-12-05T03:20:58.441Z,39.53
2022-12-05T03:23:30.766Z,34.03
2022-12-05T03:26:11.864Z,35.63
2022-12-05T03:28:50.521Z,37.88
2022-12-05T03:31:24.138Z,49.63
2022-12-05T03:33:59.200Z,36.33
2022-12-05T03:36:34.722Z,41.67
2022-12-05T03:39:08.389Z,41.45
2022-12-05T03:41:42.380Z,44.67
2022-12-05T03:44:16.360Z,44.58
2022-12-05T03:46:49.552Z,48.17
2022-12-05T03:49:23.375Z,48.08
2022-12-05T03:51:56.068Z,49.33
2022-12-05T03:54:27.336Z,41.60
2022-12-05T03:57:00.942Z,45.38
2022-12-05T03:59:34.291Z,43.15
2022-12-05T04:02:08.420Z,40.83
2022-12-05T04:04:45.564Z,44.15
2022-12-05T04:07:14.341Z,49.83
2022-12-05T04:09:46.855Z,43.28
2022-12-05T04:14:48.865Z,42.58
2022-12-05T04:17:21.597Z,38.47
2022-12-05T04:20:12.393Z,34.63
2022-12-05T04:22:41.168Z,43.83
2022-12-05T04:25:29.168Z,40.72
2022-12-05T04:28:06.657Z,34.95
2022-12-05T04:30:39.547Z,44.63
2022-12-05T04:33:12.415Z,39.15
2022-12-05T04:35:46.563Z,40.55
2022-12-05T04:38:19.020Z,42.47
2022-12-05T04:43:19.794Z,39.95
2022-12-05T04:45:48.812Z,40.22
2022-12-05T04:48:18.732Z,36.63
2022-12-05T04:50:50.230Z,45.28
2022-12-05T04:53:19.093Z,38.33
2022-12-05T04:55:51.310Z,39.50
2022-12-05T04:58:21.332Z,35.42
2022-12-05T05:00:55.111Z,35.03
2022-12-05T05:03:27.531Z,31.92
2022-12-05T05:05:58.622Z,41.80
2022-12-05T05:08:28.931Z,38.53
2022-12-05T05:11:05.286Z,38.33
2022-12-05T05:13:33.198Z,34.47
2022-12-05T05:16:01.228Z,37.30
2022-12-05T05:18:29.230Z,31.80
2022-12-05T05:20:58.940Z,34.92
2022-12-05T05:23:26.844Z,32.67
2022-12-05T05:25:55.920Z,40.38
2022-12-05T05:28:24.311Z,40.33
2022-12-05T05:30:52.339Z,33.10
2022-12-05T05:33:20.401Z,38.88
2022-12-05T05:36:02.025Z,32.83
2022-12-05T05:38:31.606Z,28.87
2022-12-05T05:41:04.281Z,37.50
2022-12-05T05:43:32.295Z,39.10
2022-12-05T05:46:00.352Z,37.20
2022-12-05T05:48:28.453Z,37.67
2022-12-05T05:50:58.962Z,34.45
2022-12-05T05:53:27.120Z,32.03
2022-12-05T06:00:37.764Z,34.80
2022-12-05T06:07:49.627Z,38.63
2022-12-05T06:10:20.265Z,42.95
2022-12-05T06:12:48.244Z,45.58
2022-12-05T06:15:16.424Z,40.63
2022-12-05T06:17:44.463Z,42.33
2022-12-05T06:20:14.289Z,43.63
2022-12-05T06:22:42.658Z,41.28
2022-12-05T06:25:11.845Z,47.85
2022-12-05T06:27:39.828Z,46.20
2022-12-05T06:30:09.344Z,41.95
2022-12-05T06:32:37.380Z,42.00
2022-12-05T06:35:15.113Z,46.65
2022-12-05T06:37:44.786Z,44.80
2022-12-05T06:40:13.493Z,46.90
2022-12-05T06:42:41.434Z,38.90
2022-12-05T06:45:10.345Z,37.10
2022-12-05T06:47:38.287Z,43.85
2022-12-05T06:50:09.523Z,41.38
2022-12-05T06:52:37.492Z,46.55
2022-12-05T06:55:07.735Z,46.00
2022-12-05T06:57:35.813Z,48.55
2022-12-05T07:00:19.148Z,40.20
2022-12-05T07:02:47.226Z,36.08
2022-12-05T07:05:15.337Z,32.13
2022-12-05T07:07:43.362Z,38.13
2022-12-05T07:10:13.632Z,35.17
2022-12-05T07:12:41.560Z,32.40
2022-12-05T07:15:11.967Z,41.75
2022-12-05T07:17:40.251Z,36.03
2022-12-05T07:20:10.343Z,36.30
2022-12-05T07:22:38.505Z,36.53
2022-12-05T07:25:07.415Z,45.60
2022-12-05T07:27:36.849Z,38.10
2022-12-05T07:30:05.238Z,36.20
2022-12-05T07:32:34.301Z,37.40
2022-12-05T07:35:02.309Z,36.58
2022-12-05T07:37:30.252Z,34.95
2022-12-05T07:39:58.526Z,32.22
2022-12-05T07:42:26.579Z,42.33
2022-12-05T07:44:55.999Z,31.67
2022-12-05T07:47:25.261Z,45.88
2022-12-05T07:49:53.239Z,37.15
2022-12-05T07:52:21.227Z,40.97
2022-12-05T07:54:49.175Z,34.80
2022-12-05T07:57:17.378Z,35.00
2022-12-05T07:59:45.445Z,34.42
2022-12-05T08:02:14.895Z,41.92
2022-12-05T08:04:43.007Z,34.17
2022-12-05T08:07:11.836Z,37.90
2022-12-05T08:09:39.854Z,39.75
2022-12-05T08:12:08.427Z,35.00
2022-12-05T08:14:40.697Z,36.67
2022-12-05T08:17:08.715Z,36.13
2022-12-05T08:19:38.179Z,34.90
2022-12-05T08:22:09.278Z,37.83
2022-12-05T08:24:40.153Z,37.85
2022-12-05T08:27:08.366Z,37.25
2022-12-05T08:29:36.312Z,33.72
2022-12-05T08:32:04.430Z,29.17
2022-12-05T08:34:32.377Z,31.95
2022-12-05T08:37:06.727Z,35.70
2022-12-05T08:39:38.726Z,30.25
2022-12-05T08:42:07.298Z,40.70
2022-12-05T08:44:35.308Z,41.53
2022-12-05T08:47:03.440Z,35.63
2022-12-05T08:49:31.517Z,33.28
2022-12-05T08:51:59.468Z,35.97
2022-12-05T08:54:29.188Z,41.00
2022-12-05T08:57:02.939Z,37.50
2022-12-05T08:59:33.399Z,37.45
2022-12-05T09:02:04.157Z,40.67
2022-12-05T09:04:32.196Z,39.80
2022-12-05T09:07:06.770Z,35.13
2022-12-05T09:09:36.367Z,44.60
2022-12-05T09:12:04.581Z,41.65
2022-12-05T09:14:33.141Z,41.03
2022-12-05T09:17:01.874Z,41.28
2022-12-05T09:19:30.691Z,40.55
2022-12-05T09:22:00.957Z,46.78
2022-12-05T09:24:30.565Z,45.42
2022-12-05T09:27:02.881Z,40.15
2022-12-05T09:29:32.576Z,42.63
2022-12-05T09:32:02.825Z,41.03
2022-12-05T09:34:31.051Z,40.90
2022-12-05T09:37:16.602Z,38.65
2022-12-05T09:39:48.168Z,36.75
2022-12-05T09:42:39.528Z,38.28
2022-12-05T09:45:23.660Z,40.80
2022-12-05T09:47:58.110Z,40.58
2022-12-05T09:50:28.276Z,38.05
2022-12-05T09:53:07.892Z,39.00
2022-12-05T09:55:52.405Z,38.22
2022-12-05T09:58:41.374Z,38.13
2022-12-05T10:01:28.773Z,36.70
2022-12-05T10:04:17.839Z,41.58
2022-12-05T10:06:56.320Z,35.75
2022-12-05T10:09:36.245Z,38.88
2022-12-05T10:12:20.130Z,41.78
2022-12-05T10:14:59.910Z,44.05
2022-12-05T10:17:33.982Z,39.17
2022-12-05T10:20:06.789Z,37.75
2022-12-05T10:22:44.440Z,41.35
2022-12-05T10:25:15.870Z,35.35
2022-12-05T10:27:47.665Z,30.35
2022-12-05T10:30:20.531Z,24.92
2022-12-05T10:32:54.415Z,30.70
2022-12-05T10:35:24.604Z,31.23
2022-12-05T10:37:55.327Z,35.00
2022-12-05T10:40:37.541Z,33.17
2022-12-05T10:43:06.285Z,35.08
2022-12-05T10:45:42.518Z,35.78
2022-12-05T10:48:15.811Z,34.05
2022-12-05T10:50:51.139Z,37.45
2022-12-05T10:53:23.803Z,35.42
2022-12-05T10:56:28.754Z,39.20
2022-12-05T10:58:57.055Z,36.08
2022-12-05T11:01:31.413Z,31.20
2022-12-05T11:04:02.052Z,38.40
2022-12-05T11:06:32.074Z,35.25
2022-12-05T11:09:05.749Z,35.65
2022-12-05T11:11:35.576Z,31.83
2022-12-05T11:14:06.057Z,31.25
2022-12-05T11:16:37.772Z,31.02
2022-12-05T11:19:24.573Z,30.50
2022-12-05T11:21:53.295Z,32.70
2022-12-05T11:24:23.896Z,35.10
2022-12-05T11:26:52.012Z,35.42
2022-12-05T11:29:38.561Z,29.95
2022-12-05T11:32:19.881Z,32.95
2022-12-05T11:34:55.019Z,34.40
2022-12-05T11:37:27.730Z,35.25
2022-12-05T11:39:55.804Z,28.83
2022-12-05T11:42:33.665Z,37.03
2022-12-05T11:45:18.334Z,34.95
2022-12-05T11:48:06.602Z,26.92
2022-12-05T11:50:42.187Z,30.98
2022-12-05T11:53:27.888Z,28.20
2022-12-05T11:56:05.256Z,26.65
2022-12-05T11:58:51.788Z,29.35
2022-12-05T12:01:25.056Z,28.25
2022-12-05T12:04:14.819Z,29.45
2022-12-05T12:06:51.431Z,32.28
2022-12-05T12:09:30.418Z,25.92
2022-12-05T12:12:05.144Z,28.88
2022-12-05T12:14:42.448Z,31.15
2022-12-05T12:17:21.526Z,31.33
2022-12-05T12:20:16.011Z,36.75
2022-12-05T12:22:58.619Z,23.88
2022-12-05T12:25:38.401Z,29.15
2022-12-05T12:28:26.267Z,33.42
2022-12-05T12:31:07.366Z,26.38
2022-12-05T12:33:42.640Z,25.50
2022-12-05T12:36:19.791Z,26.63
2022-12-05T12:39:16.497Z,28.05
2022-12-05T12:41:58.242Z,25.45
2022-12-05T12:45:09.468Z,25.70
2022-12-05T12:47:49.743Z,26.90
2022-12-05T12:50:22.574Z,22.88
2022-12-05T12:53:23.731Z,24.35
2022-12-05T12:56:00.587Z,23.90
2022-12-05T12:58:41.474Z,23.13
2022-12-05T13:01:18.027Z,27.38
2022-12-05T13:03:54.036Z,23.52
2022-12-05T13:06:28.318Z,26.98
2022-12-05T13:09:00.769Z,22.90
2022-12-05T13:11:34.964Z,24.27
2022-12-05T13:14:04.536Z,15.93
2022-12-05T13:16:42.551Z,25.73
2022-12-05T13:19:28.820Z,21.20
2022-12-05T13:21:58.891Z,21.05
2022-12-05T13:24:29.859Z,18.38
2022-12-05T13:27:01.472Z,18.67
2022-12-05T13:29:34.971Z,16.17
2022-12-05T13:32:04.431Z,16.45
2022-12-05T13:34:50.085Z,13.95
2022-12-05T13:37:41.604Z,15.00
2022-12-05T13:40:42.745Z,12.50
2022-12-05T13:43:14.709Z,9.07
2022-12-05T13:45:44.439Z,10.38
2022-12-05T13:48:20.914Z,9.38
2022-12-05T13:50:55.294Z,9.98
2022-12-05T13:53:38.626Z,8.45
2022-12-05T13:56:27.530Z,8.90
2022-12-05T13:58:57.174Z,7.07
2022-12-05T14:01:53.875Z,7.38
2022-12-05T14:04:50.335Z,6.15
2022-12-05T14:07:38.700Z,5.53
2022-12-05T14:10:08.570Z,5.78
2022-12-05T14:12:49.494Z,5.10
2022-12-05T14:15:35.409Z,5.10
2022-12-05T14:18:14.402Z,4.25
2022-12-05T14:20:49.893Z,4.10
2022-12-05T14:23:39.062Z,4.32
2022-12-05T14:26:18.448Z,3.63
2022-12-05T14:29:06.406Z,6.00
2022-12-05T14:32:04.530Z,3.75
2022-12-05T14:34:35.897Z,5.32
2022-12-05T14:37:07.685Z,4.80
2022-12-05T14:39:40.210Z,4.07
2022-12-05T14:44:53.582Z,4.97
2022-12-05T14:47:23.986Z,4.25
2022-12-05T14:50:02.231Z,5.15
2022-12-05T14:52:34.003Z,4.32
2022-12-05T14:55:06.791Z,3.78
2022-12-05T14:57:44.211Z,3.67
2022-12-05T15:00:22.407Z,4.80
2022-12-05T15:02:55.474Z,4.45
2022-12-05T15:05:28.508Z,4.40
2022-12-05T15:07:57.319Z,4.15
2022-12-05T15:10:29.398Z,4.40
2022-12-05T15:13:00.698Z,4.15
2022-12-05T15:15:40.322Z,3.30
2022-12-05T15:18:19.778Z,4.22
2022-12-05T15:20:53.730Z,3.42
2022-12-05T15:23:42.550Z,2.85
2022-12-05T15:26:46.103Z,4.10
2022-12-05T15:29:16.601Z,3.67
2022-12-05T15:31:49.083Z,4.05
2022-12-05T15:36:51.870Z,2.58
2022-12-05T15:39:25.862Z,5.43
2022-12-05T15:41:54.908Z,3.08
2022-12-05T15:44:27.699Z,3.15
2022-12-05T15:46:59.848Z,3.65
2022-12-05T15:49:29.855Z,5.03
2022-12-05T15:52:08.130Z,4.72
2022-12-05T15:54:39.577Z,4.13
2022-12-05T15:57:14.762Z,6.68
2022-12-05T15:59:48.202Z,5.53
2022-12-05T16:02:22.167Z,4.22
2022-12-05T16:04:55.332Z,5.25
2022-12-05T16:07:26.973Z,4.30
2022-12-05T16:09:58.936Z,3.77
2022-12-05T16:13:02.731Z,3.38
2022-12-05T16:17:06.355Z,4.07
2022-12-05T16:18:29.893Z,2.72
2022-12-05T16:21:00.387Z,3.47
2022-12-05T16:23:32.659Z,4.68
2022-12-05T16:26:21.179Z,5.15
2022-12-05T16:28:59.052Z,3.95
2022-12-05T16:31:45.036Z,4.65
2022-12-05T16:34:18.006Z,4.63
2022-12-05T16:36:47.998Z,6.22
2022-12-05T16:39:19.587Z,4.68
2022-12-05T16:41:48.977Z,4.20
2022-12-05T16:44:57.649Z,3.90
2022-12-05T16:47:27.901Z,2.95
2022-12-05T16:49:57.575Z,4.45
2022-12-05T16:52:32.173Z,4.22
2022-12-05T16:55:00.681Z,4.05
2022-12-05T16:57:28.810Z,3.80
2022-12-05T17:00:04.319Z,3.42
2022-12-05T17:02:32.428Z,3.63
2022-12-05T17:05:07.898Z,6.00
2022-12-05T17:07:36.257Z,4.60
2022-12-05T17:10:04.789Z,5.63
2022-12-05T17:12:33.076Z,4.15
2022-12-05T17:15:01.460Z,7.75
2022-12-05T17:17:32.498Z,6.07
2022-12-05T17:20:02.017Z,4.18
2022-12-05T17:22:30.070Z,3.92
2022-12-05T17:24:59.874Z,3.40
2022-12-05T17:27:28.404Z,3.90
2022-12-05T17:29:56.621Z,4.47
2022-12-05T17:32:24.775Z,5.30
2022-12-05T17:34:52.859Z,4.43
2022-12-05T17:37:23.167Z,5.38
2022-12-05T17:39:51.137Z,6.68
2022-12-05T17:42:19.180Z,15.80
2022-12-05T17:44:47.317Z,6.10
2022-12-05T17:47:15.349Z,5.90
2022-12-05T17:49:43.483Z,5.45
2022-12-05T17:52:21.613Z,6.00
2022-12-05T17:54:53.777Z,7.72
2022-12-05T17:57:23.700Z,4.32
2022-12-05T17:59:51.643Z,8.73
2022-12-05T18:02:20.104Z,6.13
2022-12-05T18:04:48.148Z,6.70
2022-12-05T18:07:16.880Z,5.55
2022-12-05T18:09:44.942Z,4.75
2022-12-05T18:12:14.505Z,5.32
2022-12-05T18:14:42.390Z,5.65
2022-12-05T18:17:10.355Z,4.47
2022-12-05T18:19:38.510Z,5.47
2022-12-05T18:22:06.536Z,8.95
2022-12-05T18:24:34.603Z,7.03
2022-12-05T18:27:02.598Z,7.43
2022-12-05T18:29:32.164Z,6.00
2022-12-05T18:32:00.355Z,6.45
2022-12-05T18:34:29.196Z,5.38
2022-12-05T18:36:57.374Z,7.35
2022-12-05T18:39:25.433Z,6.80
2022-12-05T18:41:54.389Z,8.40
2022-12-05T18:44:22.436Z,6.97
2022-12-05T18:46:51.817Z,6.35
2022-12-05T18:49:23.914Z,6.38
2022-12-05T18:51:52.183Z,7.40
2022-12-05T18:54:20.283Z,6.32
2022-12-05T18:56:50.606Z,7.90
2022-12-05T18:59:20.963Z,6.50
2022-12-05T19:01:49.536Z,6.05
2022-12-05T19:04:21.396Z,9.35
2022-12-05T19:06:51.589Z,6.85
2022-12-05T19:09:22.683Z,7.38
2022-12-05T19:11:54.890Z,8.57
2022-12-05T19:14:27.957Z,7.60
2022-12-05T19:17:00.128Z,7.65
2022-12-05T19:19:34.458Z,8.32
2022-12-05T19:22:02.536Z,9.32
2022-12-05T19:24:30.778Z,6.63
2022-12-05T19:27:02.145Z,6.88
2022-12-05T19:29:32.298Z,9.43
2022-12-05T19:32:02.853Z,10.00
2022-12-05T19:34:34.117Z,8.30
2022-12-05T19:37:02.215Z,7.10
2022-12-05T19:39:30.650Z,8.57
2022-12-05T19:41:59.486Z,8.93
2022-12-05T19:44:30.545Z,8.18
2022-12-05T19:46:58.554Z,7.25
2022-12-05T19:49:28.504Z,9.30
2022-12-05T19:51:57.879Z,9.35
2022-12-05T19:54:26.116Z,8.73
2022-12-05T19:57:00.128Z,8.15
2022-12-05T19:59:28.200Z,6.88
2022-12-05T20:01:56.394Z,6.93
2022-12-05T20:04:26.345Z,6.95
2022-12-05T20:06:54.573Z,5.28
2022-12-05T20:09:27.108Z,7.45
2022-12-05T20:14:27.943Z,5.75
2022-12-05T20:16:56.175Z,5.75
2022-12-05T20:19:24.820Z,7.38
2022-12-05T20:21:55.373Z,5.70
2022-12-05T20:24:28.134Z,6.60
2022-12-05T20:26:56.086Z,7.72
2022-12-05T20:29:24.237Z,6.60
2022-12-05T20:31:56.663Z,6.30
2022-12-05T20:36:52.713Z,6.07
2022-12-05T20:39:24.889Z,5.43
2022-12-05T20:41:54.635Z,4.90
2022-12-05T20:44:23.328Z,6.72
2022-12-05T20:46:52.045Z,5.60
2022-12-05T20:49:20.163Z,8.98
2022-12-05T20:51:48.813Z,7.45
2022-12-05T20:54:18.531Z,4.97
2022-12-05T20:56:46.787Z,7.22
2022-12-05T20:59:16.350Z,6.75
2022-12-05T21:01:44.630Z,8.18
2022-12-05T21:04:16.090Z,6.63
2022-12-05T21:06:45.905Z,9.45
2022-12-05T21:09:18.667Z,8.45
2022-12-05T21:11:50.320Z,7.65
2022-12-05T21:14:22.747Z,8.27
2022-12-05T21:19:22.017Z,7.47
2022-12-05T21:21:52.697Z,7.38
2022-12-05T21:24:25.354Z,7.43
2022-12-05T21:26:56.374Z,10.40
2022-12-05T21:29:25.971Z,6.13
2022-12-05T21:31:54.090Z,7.85
2022-12-05T21:34:22.781Z,8.30
2022-12-05T21:36:51.420Z,7.68
2022-12-05T21:39:19.715Z,6.38
2022-12-05T21:41:47.652Z,8.55
2022-12-05T21:44:16.056Z,7.35
2022-12-05T21:46:53.333Z,6.68
2022-12-05T21:49:21.423Z,9.35
2022-12-05T21:51:49.503Z,8.25
2022-12-05T21:54:17.641Z,8.20
2022-12-05T21:56:46.336Z,8.50
2022-12-05T21:59:14.495Z,6.20
2022-12-05T22:01:42.755Z,6.57
2022-12-05T22:04:12.183Z,6.85
2022-12-05T22:06:40.200Z,6.00
2022-12-05T22:09:09.402Z,7.88
2022-12-05T22:11:37.470Z,6.25
2022-12-05T22:14:05.492Z,6.40
2022-12-05T22:16:33.922Z,6.80
2022-12-05T22:19:02.834Z,5.93
2022-12-05T22:21:34.058Z,7.80
2022-12-05T22:24:02.492Z,5.47
2022-12-05T22:26:30.478Z,7.70
2022-12-05T22:28:58.582Z,8.32
2022-12-05T22:31:26.703Z,8.23
2022-12-05T22:33:54.725Z,6.35
2022-12-05T22:36:25.322Z,5.70
2022-12-05T22:38:54.716Z,7.07
2022-12-05T22:41:27.511Z,6.45
2022-12-05T22:43:57.609Z,6.40
2022-12-05T22:46:30.862Z,7.13
2022-12-05T22:48:58.973Z,8.40
2022-12-05T22:51:27.879Z,7.75
2022-12-05T22:53:57.582Z,5.07
2022-12-05T22:56:28.450Z,5.90
2022-12-05T22:58:57.868Z,6.75
2022-12-05T23:04:54.623Z,6.35
2022-12-05T23:07:48.588Z,6.22
2022-12-05T23:10:37.785Z,8.45
2022-12-05T23:13:24.005Z,7.45
2022-12-05T23:16:15.543Z,7.63
2022-12-05T23:19:04.627Z,6.70
2022-12-05T23:21:34.983Z,6.00
2022-12-05T23:24:05.246Z,7.30
2022-12-05T23:26:36.491Z,7.28
2022-12-05T23:29:04.874Z,9.60
2022-12-05T23:31:32.896Z,10.32
2022-12-05T23:34:03.613Z,8.75
2022-12-05T23:36:32.577Z,7.93
2022-12-05T23:39:00.481Z,8.90
2022-12-05T23:41:28.533Z,9.05
2022-12-05T23:43:59.380Z,10.57
2022-12-05T23:46:31.929Z,9.38
2022-12-05T23:49:00.007Z,7.97
2022-12-05T23:51:29.808Z,10.88
2022-12-05T23:53:59.172Z,7.80
2022-12-05T23:56:29.295Z,7.35
2022-12-05T23:58:58.881Z,9.25
